Malaviya Twenty — AUEV — position and weather

sailwx.info

Track history (hours):
 
Tides and Currents Weather Stations Pressure Air Temp Water Temp Dewpoint Dewpoint Depression Visibility Wind Speed Wind Dir Waves Ship Positions

Malaviya Twenty

Last reported at 2014-Sep-03 06:31 UTC. Time now 2014-Sep-03 07:20 UTC.
Position N 53°42' E 001°06'.

Length 72 m; draft 4.3 m.

Type: Ship. MMSI: 419504000.

Date/timePositionNaut miles runAvg speedWind from/ knotsBaromVisibWave heightAir tempDewpointWater temp
2014-Sep-03 06:31N 53°42' E 001°06'1 1.3
2014-Sep-03 05:33N 53°41' E 001°05'2 1.0
2014-Sep-03 03:15N 53°41' E 001°09'11 4.1
2014-Sep-03 00:33N 53°37' E 001°26'8 8.1
2014-Sep-02 23:33N 53°29' E 001°28'8 8.4
2014-Sep-02 22:33N 53°21' E 001°28'8 8.2
2014-Sep-02 21:33N 53°13' E 001°28'8 8.3
2014-Sep-02 20:33N 53°04' E 001°27'1010.3
2014-Sep-02 19:33N 52°55' E 001°35'1010.2
2014-Sep-02 18:33N 52°46' E 001°43'1110.9
2014-Sep-02 17:33N 52°35' E 001°46'1 1.3
2014-Sep-02 16:32N 52°36' E 001°44'0 0.0
2014-Sep-02 15:32N 52°36' E 001°44'0 0.0
2014-Sep-02 14:32N 52°36' E 001°44'0 0.0
2014-Sep-02 13:32N 52°36' E 001°44'0 0.0
2014-Sep-02 12:32N 52°36' E 001°44'0 0.0
2014-Sep-02 11:32N 52°36' E 001°44'0 0.0
2014-Sep-02 10:32N 52°36' E 001°44'0 0.0
2014-Sep-02 09:32N 52°36' E 001°44'0 0.0
2014-Sep-02 08:32N 52°36' E 001°44'0 0.0
2014-Sep-02 07:32N 52°36' E 001°44'2 1.6
2014-Sep-02 06:33N 52°34' E 001°45'2 1.6
2014-Sep-02 05:33N 52°36' E 001°46'6 6.4
2014-Sep-02 04:33N 52°42' E 001°47'8 8.5
2014-Sep-02 03:33N 52°50' E 001°40'8 8.2
2014-Sep-02 02:33N 52°57' E 001°33'8 8.3
2014-Sep-02 01:33N 53°05' E 001°28'9 8.6
2014-Sep-02 00:31N 53°14' E 001°28'20 9.7
2014-Sep-01 22:30N 53°33' E 001°28'1010.4
2014-Sep-01 21:33N 53°40' E 001°16'5 2.4
2014-Sep-01 19:30N 53°42' E 001°09'1 0.4
2014-Sep-01 18:05N 53°42' E 001°10'1 0.1
2014-Sep-01 10:22N 53°42' E 001°09'2 0.5
2014-Sep-01 05:33N 53°45' E 001°10'1 1.2
2014-Sep-01 04:24N 53°43' E 001°10'1 0.9
2014-Sep-01 03:32N 53°44' E 001°10'1 0.8
2014-Sep-01 02:33N 53°44' E 001°12'1 1.0
2014-Sep-01 01:34N 53°45' E 001°13'2 2.2
2014-Sep-01 00:33N 53°43' E 001°12'1 0.8
2014-Aug-31 23:32N 53°42' E 001°11'1 1.3
2014-Aug-31 22:33N 53°43' E 001°12'1 0.0
2014-Aug-30 03:19N 53°44' E 001°12'2 0.1
2014-Aug-29 00:32N 53°45' E 001°09'0 0.4
2014-Aug-28 23:33N 53°45' E 001°10'0 0.2
2014-Aug-28 22:33N 53°45' E 001°10'1 0.7
2014-Aug-28 21:33N 53°45' E 001°12'3 0.1
2014-Aug-27 23:04N 53°46' E 001°16'0 0.4
2014-Aug-27 22:23N 53°46' E 001°16'1 1.1
2014-Aug-27 21:33N 53°47' E 001°15'36 7.2
2014-Aug-27 16:33N 53°12' E 001°28'9 9.2
2014-Aug-27 15:33N 53°03' E 001°28'9 9.3
2014-Aug-27 14:33N 52°55' E 001°35'1111.0
2014-Aug-27 13:33N 52°45' E 001°44'1110.7
2014-Aug-27 12:34N 52°35' E 001°45'1 1.4
2014-Aug-27 11:32N 52°36' E 001°44'0 0.0
2014-Aug-27 10:32N 52°36' E 001°44'0 0.0
2014-Aug-27 09:32N 52°36' E 001°44'0 0.0
2014-Aug-27 08:32N 52°36' E 001°44'0 0.0
2014-Aug-27 07:32N 52°36' E 001°44'0 0.0
2014-Aug-27 06:32N 52°36' E 001°44'0 0.0
2014-Aug-27 05:32N 52°36' E 001°44'0 0.0
2014-Aug-27 04:32N 52°36' E 001°44'0 0.0
2014-Aug-27 03:32N 52°36' E 001°44'0 0.0
2014-Aug-27 02:32N 52°36' E 001°44'0 0.0
2014-Aug-27 01:32N 52°36' E 001°44'1 1.5
2014-Aug-27 00:33N 52°34' E 001°45'5 5.3
2014-Aug-26 23:33N 52°40' E 001°46'7 7.4
2014-Aug-26 22:33N 52°46' E 001°52'7 7.1
2014-Aug-26 21:33N 52°52' E 001°59'14 7.0
2014-Aug-26 19:30N 53°03' E 002°14'2 1.1
2014-Aug-26 17:32N 53°01' E 002°14'1 0.9
2014-Aug-26 16:32N 53°02' E 002°14'1 1.5
2014-Aug-26 15:32N 53°03' E 002°16'1 0.2
2014-Aug-26 08:29N 53°02' E 002°14'0 0.3
2014-Aug-26 07:06N 53°02' E 002°15'0 0.0
2014-Aug-25 22:26N 53°02' E 002°15'1 0.3
2014-Aug-25 18:07N 53°01' E 002°14'1 1.4
2014-Aug-25 17:33N 53°02' E 002°14'1 0.2
2014-Aug-25 14:31N 53°02' E 002°14'0 0.1
2014-Aug-25 13:14N 53°03' E 002°14'0 0.3
2014-Aug-25 12:09N 53°02' E 002°14'0 0.3
2014-Aug-25 11:07N 53°02' E 002°14'0 0.1
2014-Aug-25 08:32N 53°02' E 002°14'1 0.9
2014-Aug-25 07:33N 53°03' E 002°14'3 0.9
2014-Aug-25 04:31N 53°01' E 002°14'0 0.4
2014-Aug-25 03:33N 53°01' E 002°14'0 0.4
2014-Aug-25 02:32N 53°01' E 002°14'0 0.3
2014-Aug-25 01:33N 53°02' E 002°14'0 0.5
2014-Aug-25 00:33N 53°02' E 002°14'1 0.3
2014-Aug-24 21:33N 53°03' E 002°14'0 0.0
2014-Aug-24 20:32N 53°03' E 002°14'0 0.0
2014-Aug-24 19:08N 53°03' E 002°14'0 0.0
2014-Aug-24 18:32N 53°03' E 002°14'1 0.4
2014-Aug-24 16:24N 53°02' E 002°14'0 0.4
2014-Aug-24 15:33N 53°03' E 002°15'1 0.3
2014-Aug-24 11:32N 53°01' E 002°14'2 0.8
2014-Aug-24 09:28N 53°03' E 002°14'0 0.0
2014-Aug-24 08:06N 53°03' E 002°14'0 0.1
2014-Aug-24 07:32N 53°03' E 002°14'0 0.1
2014-Aug-24 06:32N 53°03' E 002°14'  
Track history (hours):
 
Tides and Currents Weather Stations Pressure Air Temp Water Temp Dewpoint Dewpoint Depression Visibility Wind Speed Wind Dir Waves Ship Positions

Malaviya Twenty

Last reported at 2014-Sep-03 06:31 UTC. Time now 2014-Sep-03 07:20 UTC.
Position N 53°42' E 001°06'.

Length 72 m; draft 4.3 m.

Type: Ship. MMSI: 419504000.

Date/timePositionNaut miles runAvg speedWind from/ knotsBaromVisibWave heightAir tempDewpointWater temp
2014-Sep-03 06:31N 53°42' E 001°06'1 1.3
2014-Sep-03 05:33N 53°41' E 001°05'2 1.0
2014-Sep-03 03:15N 53°41' E 001°09'11 4.1
2014-Sep-03 00:33N 53°37' E 001°26'8 8.1
2014-Sep-02 23:33N 53°29' E 001°28'8 8.4
2014-Sep-02 22:33N 53°21' E 001°28'8 8.2
2014-Sep-02 21:33N 53°13' E 001°28'8 8.3
2014-Sep-02 20:33N 53°04' E 001°27'1010.3
2014-Sep-02 19:33N 52°55' E 001°35'1010.2
2014-Sep-02 18:33N 52°46' E 001°43'1110.9
2014-Sep-02 17:33N 52°35' E 001°46'1 1.3
2014-Sep-02 16:32N 52°36' E 001°44'0 0.0
2014-Sep-02 15:32N 52°36' E 001°44'0 0.0
2014-Sep-02 14:32N 52°36' E 001°44'0 0.0
2014-Sep-02 13:32N 52°36' E 001°44'0 0.0
2014-Sep-02 12:32N 52°36' E 001°44'0 0.0
2014-Sep-02 11:32N 52°36' E 001°44'0 0.0
2014-Sep-02 10:32N 52°36' E 001°44'0 0.0
2014-Sep-02 09:32N 52°36' E 001°44'0 0.0
2014-Sep-02 08:32N 52°36' E 001°44'0 0.0
2014-Sep-02 07:32N 52°36' E 001°44'2 1.6
2014-Sep-02 06:33N 52°34' E 001°45'2 1.6
2014-Sep-02 05:33N 52°36' E 001°46'6 6.4
2014-Sep-02 04:33N 52°42' E 001°47'8 8.5
2014-Sep-02 03:33N 52°50' E 001°40'8 8.2
2014-Sep-02 02:33N 52°57' E 001°33'8 8.3
2014-Sep-02 01:33N 53°05' E 001°28'9 8.6
2014-Sep-02 00:31N 53°14' E 001°28'20 9.7
2014-Sep-01 22:30N 53°33' E 001°28'1010.4
2014-Sep-01 21:33N 53°40' E 001°16'5 2.4
2014-Sep-01 19:30N 53°42' E 001°09'1 0.4
2014-Sep-01 18:05N 53°42' E 001°10'1 0.1
2014-Sep-01 10:22N 53°42' E 001°09'2 0.5
2014-Sep-01 05:33N 53°45' E 001°10'1 1.2
2014-Sep-01 04:24N 53°43' E 001°10'1 0.9
2014-Sep-01 03:32N 53°44' E 001°10'1 0.8
2014-Sep-01 02:33N 53°44' E 001°12'1 1.0
2014-Sep-01 01:34N 53°45' E 001°13'2 2.2
2014-Sep-01 00:33N 53°43' E 001°12'1 0.8
2014-Aug-31 23:32N 53°42' E 001°11'1 1.3
2014-Aug-31 22:33N 53°43' E 001°12'1 0.0
2014-Aug-30 03:19N 53°44' E 001°12'2 0.1
2014-Aug-29 00:32N 53°45' E 001°09'0 0.4
2014-Aug-28 23:33N 53°45' E 001°10'0 0.2
2014-Aug-28 22:33N 53°45' E 001°10'1 0.7
2014-Aug-28 21:33N 53°45' E 001°12'3 0.1
2014-Aug-27 23:04N 53°46' E 001°16'0 0.4
2014-Aug-27 22:23N 53°46' E 001°16'1 1.1
2014-Aug-27 21:33N 53°47' E 001°15'36 7.2
2014-Aug-27 16:33N 53°12' E 001°28'9 9.2
2014-Aug-27 15:33N 53°03' E 001°28'9 9.3
2014-Aug-27 14:33N 52°55' E 001°35'1111.0
2014-Aug-27 13:33N 52°45' E 001°44'1110.7
2014-Aug-27 12:34N 52°35' E 001°45'1 1.4
2014-Aug-27 11:32N 52°36' E 001°44'0 0.0
2014-Aug-27 10:32N 52°36' E 001°44'0 0.0
2014-Aug-27 09:32N 52°36' E 001°44'0 0.0
2014-Aug-27 08:32N 52°36' E 001°44'0 0.0
2014-Aug-27 07:32N 52°36' E 001°44'0 0.0
2014-Aug-27 06:32N 52°36' E 001°44'0 0.0
2014-Aug-27 05:32N 52°36' E 001°44'0 0.0
2014-Aug-27 04:32N 52°36' E 001°44'0 0.0
2014-Aug-27 03:32N 52°36' E 001°44'0 0.0
2014-Aug-27 02:32N 52°36' E 001°44'0 0.0
2014-Aug-27 01:32N 52°36' E 001°44'1 1.5
2014-Aug-27 00:33N 52°34' E 001°45'5 5.3
2014-Aug-26 23:33N 52°40' E 001°46'7 7.4
2014-Aug-26 22:33N 52°46' E 001°52'7 7.1
2014-Aug-26 21:33N 52°52' E 001°59'14 7.0
2014-Aug-26 19:30N 53°03' E 002°14'2 1.1
2014-Aug-26 17:32N 53°01' E 002°14'1 0.9
2014-Aug-26 16:32N 53°02' E 002°14'1 1.5
2014-Aug-26 15:32N 53°03' E 002°16'1 0.2
2014-Aug-26 08:29N 53°02' E 002°14'0 0.3
2014-Aug-26 07:06N 53°02' E 002°15'0 0.0
2014-Aug-25 22:26N 53°02' E 002°15'1 0.3
2014-Aug-25 18:07N 53°01' E 002°14'1 1.4
2014-Aug-25 17:33N 53°02' E 002°14'1 0.2
2014-Aug-25 14:31N 53°02' E 002°14'0 0.1
2014-Aug-25 13:14N 53°03' E 002°14'0 0.3
2014-Aug-25 12:09N 53°02' E 002°14'0 0.3
2014-Aug-25 11:07N 53°02' E 002°14'0 0.1
2014-Aug-25 08:32N 53°02' E 002°14'1 0.9
2014-Aug-25 07:33N 53°03' E 002°14'3 0.9
2014-Aug-25 04:31N 53°01' E 002°14'0 0.4
2014-Aug-25 03:33N 53°01' E 002°14'0 0.4
2014-Aug-25 02:32N 53°01' E 002°14'0 0.3
2014-Aug-25 01:33N 53°02' E 002°14'0 0.5
2014-Aug-25 00:33N 53°02' E 002°14'1 0.3
2014-Aug-24 21:33N 53°03' E 002°14'0 0.0
2014-Aug-24 20:32N 53°03' E 002°14'0 0.0
2014-Aug-24 19:08N 53°03' E 002°14'0 0.0
2014-Aug-24 18:32N 53°03' E 002°14'1 0.4
2014-Aug-24 16:24N 53°02' E 002°14'0 0.4
2014-Aug-24 15:33N 53°03' E 002°15'1 0.3
2014-Aug-24 11:32N 53°01' E 002°14'2 0.8
2014-Aug-24 09:28N 53°03' E 002°14'0 0.0
2014-Aug-24 08:06N 53°03' E 002°14'0 0.1
2014-Aug-24 07:32N 53°03' E 002°14'0 0.1
2014-Aug-24 06:32N 53°03' E 002°14'  

Dump ship's entire track history